Time;durP1;ratioP1;P1;durP2;ratioP2;P2;SDS_P1;SDS_P2;PMS_P1;PMS_P2;Temp;Humidity;BMP_temperature;BMP_pressure;BME280_temperature;BME280_humidity;BME280_pressure;Samples;Min_cycle;Max_cycle;Signal;HPM_P1;HPM_P2
2023/06/20 00:00:23;;;;;;;0.20;0.20;;;;;;;16.35;48.01;99546.66;4905329;29;20048;-74
2023/06/20 00:02:49;;;;;;;0.20;0.20;;;;;;;16.30;47.96;99556.69;4907945;29;20070;-75
2023/06/20 00:05:17;;;;;;;0.15;0.15;;;;;;;16.25;48.53;99553.28;4906347;29;20048;-75
2023/06/20 00:07:43;;;;;;;0.20;0.20;;;;;;;16.21;48.80;99547.56;4906828;29;20056;-75
2023/06/20 00:10:10;;;;;;;0.40;0.20;;;;;;;16.14;48.93;99541.72;4906502;29;20075;-75
2023/06/20 00:12:36;;;;;;;0.10;0.10;;;;;;;16.14;48.81;99553.53;4905176;29;20062;-75
2023/06/20 00:15:04;;;;;;;0.20;0.20;;;;;;;16.16;48.19;99553.25;4905102;29;20543;-75
2023/06/20 00:17:31;;;;;;;0.10;0.10;;;;;;;16.13;47.79;99548.38;4906417;29;20079;-75
2023/06/20 00:19:58;;;;;;;0.20;0.20;;;;;;;16.10;47.61;99554.53;4906888;29;20922;-74
2023/06/20 00:22:25;;;;;;;0.10;0.10;;;;;;;16.07;47.45;99544.94;4905650;29;20543;-74
2023/06/20 00:24:52;;;;;;;0.20;0.20;;;;;;;16.07;47.18;99553.22;4905998;29;20142;-74
2023/06/20 00:27:18;;;;;;;0.10;0.10;;;;;;;16.06;46.68;99554.34;4906380;29;20048;-75
2023/06/20 00:29:44;;;;;;;0.10;0.10;;;;;;;16.06;46.80;99548.81;4906198;29;20048;-74
2023/06/20 00:32:10;;;;;;;0.10;0.10;;;;;;;16.03;46.66;99541.19;4905955;29;20059;-74
2023/06/20 00:34:36;;;;;;;0.10;0.10;;;;;;;16.07;46.40;99544.94;4906799;29;20503;-74
2023/06/20 00:37:03;;;;;;;0.10;0.10;;;;;;;16.05;46.56;99540.84;4906442;29;20041;-73
2023/06/20 00:39:30;;;;;;;0.20;0.20;;;;;;;16.01;46.30;99537.94;4908499;29;20462;-74
2023/06/20 00:41:57;;;;;;;0.10;0.10;;;;;;;16.02;46.85;99542.31;4911254;29;20419;-75
2023/06/20 00:44:24;;;;;;;0.13;0.10;;;;;;;16.08;46.17;99541.03;4908651;29;20052;-73
2023/06/20 00:46:51;;;;;;;0.20;0.20;;;;;;;16.16;46.23;99543.03;4905242;29;20432;-74
2023/06/20 00:49:17;;;;;;;0.10;0.10;;;;;;;16.21;46.32;99539.28;4905828;29;20067;-75
2023/06/20 00:51:44;;;;;;;0.10;0.10;;;;;;;16.26;46.58;99541.94;4905696;29;20135;-75
2023/06/20 00:54:10;;;;;;;0.10;0.10;;;;;;;16.34;46.89;99551.38;4906736;29;20092;-74
2023/06/20 00:56:38;;;;;;;0.20;0.20;;;;;;;16.39;47.10;99550.38;4904746;29;20056;-75
2023/06/20 00:59:05;;;;;;;0.20;0.20;;;;;;;16.45;47.56;99549.91;4905011;29;20040;-75
2023/06/20 01:01:34;;;;;;;0.20;0.20;;;;;;;16.55;47.46;99550.75;4905698;29;20071;-74
2023/06/20 01:04:01;;;;;;;0.20;0.20;;;;;;;16.59;47.10;99552.56;4904000;29;20104;-75
2023/06/20 01:06:35;;;;;;;0.20;0.20;;;;;;;16.65;46.72;99557.91;4889154;29;20111;-74
2023/06/20 01:09:08;;;;;;;0.20;0.20;;;;;;;16.70;46.87;99553.06;4888878;29;20154;-73
2023/06/20 01:11:43;;;;;;;0.20;0.20;;;;;;;16.76;46.26;99550.13;4886407;29;20751;-73
2023/06/20 01:14:21;;;;;;;0.20;0.20;;;;;;;16.78;45.93;99542.34;4903238;29;20056;-73
2023/06/20 01:16:57;;;;;;;0.20;0.20;;;;;;;16.82;46.08;99548.88;4906056;29;20103;-75
2023/06/20 01:19:43;;;;;;;0.22;0.22;;;;;;;16.84;46.21;99549.34;4904465;29;20146;-73
2023/06/20 01:22:19;;;;;;;0.20;0.20;;;;;;;16.86;46.71;99545.16;4900452;29;20052;-74
2023/06/20 01:24:58;;;;;;;0.20;0.20;;;;;;;16.93;46.75;99552.91;4890963;29;20416;-73
2023/06/20 01:27:28;;;;;;;0.20;0.20;;;;;;;16.97;46.93;99550.34;4890194;29;20047;-74
2023/06/20 01:30:00;;;;;;;0.20;0.20;;;;;;;16.96;46.50;99551.47;4909515;29;20071;-73
2023/06/20 01:32:36;;;;;;;0.10;0.10;;;;;;;16.94;46.70;99554.56;4874315;29;20103;-74
2023/06/20 01:35:11;;;;;;;0.20;0.20;;;;;;;16.94;46.66;99554.56;4905653;29;20040;-74
2023/06/20 01:37:40;;;;;;;0.20;0.20;;;;;;;16.99;46.50;99548.09;4907256;29;20054;-74
2023/06/20 01:40:11;;;;;;;0.20;0.20;;;;;;;17.07;45.82;99551.97;4903422;29;20048;-74
2023/06/20 01:42:39;;;;;;;0.20;0.20;;;;;;;17.08;45.75;99551.69;4903701;29;20171;-74
2023/06/20 01:45:08;;;;;;;0.20;0.20;;;;;;;17.11;45.22;99558.50;4903693;29;20673;-74
2023/06/20 01:47:37;;;;;;;0.17;0.17;;;;;;;17.10;45.25;99554.91;4904908;29;20143;-74
2023/06/20 01:50:06;;;;;;;0.20;0.20;;;;;;;17.13;44.73;99559.78;4905686;29;20067;-74
2023/06/20 01:52:35;;;;;;;0.17;0.17;;;;;;;17.14;44.93;99557.84;4904619;29;20215;-74
2023/06/20 01:55:04;;;;;;;0.20;0.20;;;;;;;17.14;45.08;99555.88;4906449;29;20048;-74
2023/06/20 01:57:34;;;;;;;0.20;0.20;;;;;;;17.14;44.81;99563.38;4920847;29;20151;-74
2023/06/20 02:00:04;;;;;;;0.20;0.20;;;;;;;17.12;45.25;99562.91;4922786;29;20063;-75
2023/06/20 02:02:40;;;;;;;0.30;0.20;;;;;;;17.11;45.20;99558.50;4907464;29;20080;-75
2023/06/20 02:05:08;;;;;;;0.20;0.20;;;;;;;17.20;45.00;99561.28;4906544;29;20059;-75
2023/06/20 02:07:37;;;;;;;0.20;0.20;;;;;;;17.21;45.08;99554.59;4873176;29;20067;-75
2023/06/20 02:10:04;;;;;;;0.20;0.20;;;;;;;17.28;44.87;99560.44;4904035;29;20056;-74
2023/06/20 02:12:34;;;;;;;0.15;0.15;;;;;;;17.34;44.98;99563.84;4903760;29;20147;-75
2023/06/20 02:15:00;;;;;;;0.20;0.20;;;;;;;17.36;44.71;99562.41;4887584;29;20571;-74
2023/06/20 02:17:33;;;;;;;0.20;0.20;;;;;;;17.41;44.47;99558.66;4904459;29;20059;-74
2023/06/20 02:19:59;;;;;;;0.20;0.20;;;;;;;17.43;44.66;99548.88;4920725;29;20051;-75
2023/06/20 02:22:27;;;;;;;0.30;0.30;;;;;;;17.46;44.81;99552.94;4903601;29;20076;-74
2023/06/20 02:24:59;;;;;;;0.20;0.20;;;;;;;17.47;44.91;99543.53;4923077;29;20048;-75
2023/06/20 02:27:26;;;;;;;0.30;0.30;;;;;;;17.44;44.85;99553.25;4908733;29;20375;-73
2023/06/20 02:29:56;;;;;;;0.20;0.20;;;;;;;17.41;45.05;99533.78;4908343;29;20652;-73
2023/06/20 02:32:25;;;;;;;0.20;0.20;;;;;;;17.37;44.86;99552.13;4907625;29;20109;-74
2023/06/20 02:34:54;;;;;;;0.25;0.25;;;;;;;17.33;45.07;99543.72;4905894;29;20048;-74
2023/06/20 02:37:22;;;;;;;0.20;0.20;;;;;;;17.37;44.98;99547.44;4906603;29;20048;-74
2023/06/20 02:39:48;;;;;;;0.20;0.20;;;;;;;17.41;44.72;99534.59;4904189;29;20135;-75
2023/06/20 02:42:15;;;;;;;0.23;0.23;;;;;;;17.44;44.99;99536.69;4905663;29;20319;-74
2023/06/20 02:44:41;;;;;;;0.30;0.30;;;;;;;17.50;44.15;99545.63;4909853;29;20052;-74
2023/06/20 02:47:21;;;;;;;0.20;0.20;;;;;;;17.44;43.96;99539.44;4909022;29;20048;-75
2023/06/20 02:49:56;;;;;;;0.20;0.20;;;;;;;17.48;43.63;99539.63;4922155;29;20230;-75
2023/06/20 02:52:31;;;;;;;0.20;0.20;;;;;;;17.51;43.81;99541.72;4906288;29;20059;-75
2023/06/20 02:55:09;;;;;;;0.20;0.20;;;;;;;17.61;43.39;99543.31;4906514;29;20103;-74
2023/06/20 02:57:38;;;;;;;0.22;0.22;;;;;;;17.65;43.04;99547.06;4906520;29;20063;-74
2023/06/20 03:00:09;;;;;;;0.20;0.20;;;;;;;17.66;42.47;99557.00;4890661;29;20223;-75
2023/06/20 03:02:41;;;;;;;0.20;0.20;;;;;;;17.66;42.58;99553.41;4922258;29;20139;-74
2023/06/20 03:05:13;;;;;;;0.20;0.20;;;;;;;17.66;42.15;99547.88;4905352;29;20048;-73
2023/06/20 03:07:41;;;;;;;0.20;0.20;;;;;;;17.66;42.41;99539.56;4883585;29;20056;-74
2023/06/20 03:10:08;;;;;;;0.20;0.20;;;;;;;17.74;41.82;99548.97;4905877;29;20063;-74
2023/06/20 03:12:35;;;;;;;0.30;0.30;;;;;;;17.71;41.42;99547.69;4910400;29;20600;-74
2023/06/20 03:15:01;;;;;;;0.20;0.20;;;;;;;17.72;41.51;99546.56;4904649;29;20079;-75
2023/06/20 03:17:35;;;;;;;0.20;0.20;;;;;;;17.72;41.86;99547.38;4891585;29;20312;-75
2023/06/20 03:20:05;;;;;;;0.30;0.30;;;;;;;17.75;41.57;99551.44;4906925;29;20056;-75
2023/06/20 03:22:32;;;;;;;0.20;0.20;;;;;;;17.79;41.84;99548.81;4906929;29;20052;-74
2023/06/20 03:24:58;;;;;;;0.33;0.30;;;;;;;17.77;42.08;99540.84;4906231;29;20107;-74
2023/06/20 03:27:25;;;;;;;0.30;0.30;;;;;;;17.76;42.26;99547.53;4904444;29;20304;-74
2023/06/20 03:29:51;;;;;;;0.20;0.20;;;;;;;17.72;42.58;99530.78;4910108;29;20490;-74
2023/06/20 03:32:17;;;;;;;0.30;0.30;;;;;;;17.62;42.35;99533.88;4922415;29;20048;-74
2023/06/20 03:34:44;;;;;;;0.20;0.20;;;;;;;17.59;42.32;99531.78;4906489;29;20139;-74
2023/06/20 03:37:12;;;;;;;;;;;;;;;17.47;42.61;99529.69;4905635;29;20048;-74
2023/06/20 03:39:38;;;;;;;0.30;0.30;;;;;;;17.36;43.24;99525.66;4890662;29;19959;-74
2023/06/20 03:42:05;;;;;;;0.20;0.20;;;;;;;17.29;43.17;99526.97;4905904;29;20052;-75
2023/06/20 03:44:34;;;;;;;0.28;0.28;;;;;;;17.46;43.05;99532.78;4889622;29;20052;-75
2023/06/20 03:47:01;;;;;;;0.30;0.30;;;;;;;17.51;42.82;99536.19;4904412;29;20141;-75
2023/06/20 03:49:27;;;;;;;0.20;0.20;;;;;;;17.52;43.07;99532.28;4906923;29;20060;-75
2023/06/20 03:51:53;;;;;;;0.30;0.30;;;;;;;17.48;42.51;99527.72;4905358;29;20050;-75
2023/06/20 03:54:22;;;;;;;0.28;0.28;;;;;;;17.54;42.14;99532.75;4890077;29;20431;-75
2023/06/20 03:56:49;;;;;;;0.30;0.30;;;;;;;17.50;42.20;99522.72;4890592;29;20442;-75
2023/06/20 03:59:15;;;;;;;0.30;0.30;;;;;;;17.58;41.96;99530.16;4906126;29;20408;-75
2023/06/20 04:01:42;;;;;;;0.20;0.20;;;;;;;17.56;42.12;99533.28;4906601;29;20059;-75
2023/06/20 04:04:09;;;;;;;0.25;0.22;;;;;;;17.50;42.01;99526.28;4905271;29;20044;-74
2023/06/20 04:06:35;;;;;;;0.30;0.30;;;;;;;17.61;42.21;99528.69;4904966;29;20123;-74
2023/06/20 04:09:04;;;;;;;0.20;0.20;;;;;;;17.73;42.11;99534.38;4921121;29;20123;-74
2023/06/20 04:11:32;;;;;;;0.20;0.20;;;;;;;17.76;42.31;99532.88;4904774;29;20059;-74
2023/06/20 04:13:58;;;;;;;0.28;0.25;;;;;;;17.79;41.78;99521.16;4906534;29;20485;-74
2023/06/20 04:16:24;;;;;;;0.30;0.30;;;;;;;17.92;42.13;99522.09;4907198;29;20142;-75
2023/06/20 04:18:51;;;;;;;0.30;0.30;;;;;;;17.98;41.50;99499.47;4906968;29;20048;-74
2023/06/20 04:21:17;;;;;;;0.30;0.30;;;;;;;18.15;41.34;99522.69;4904656;29;20139;-74
2023/06/20 04:23:45;;;;;;;0.30;0.30;;;;;;;18.17;41.35;99525.94;4904881;29;20040;-74
2023/06/20 04:26:11;;;;;;;0.30;0.30;;;;;;;18.19;41.22;99520.88;4906175;29;20134;-75
2023/06/20 04:28:39;;;;;;;0.30;0.30;;;;;;;18.21;40.69;99526.09;4905345;29;20052;-75
2023/06/20 04:31:05;;;;;;;0.30;0.30;;;;;;;18.19;41.04;99526.41;4885342;29;20076;-75
2023/06/20 04:33:32;;;;;;;0.30;0.30;;;;;;;18.24;41.14;99520.66;4885086;29;20040;-74
2023/06/20 04:35:58;;;;;;;0.30;0.30;;;;;;;18.33;41.11;99517.84;4906319;29;20639;-74
2023/06/20 04:38:30;;;;;;;0.30;0.30;;;;;;;18.45;41.01;99519.94;4888214;29;20499;-74
2023/06/20 04:40:57;;;;;;;0.32;0.32;;;;;;;18.54;39.40;99515.13;4875553;29;20060;-74
2023/06/20 04:43:23;;;;;;;0.30;0.30;;;;;;;18.66;38.79;99517.19;4888861;29;20047;-73
2023/06/20 04:45:51;;;;;;;0.28;0.28;;;;;;;18.77;38.27;99520.34;4905256;29;20460;-74
2023/06/20 04:48:17;;;;;;;0.30;0.30;;;;;;;18.89;38.76;99521.56;4919121;29;20104;-75
2023/06/20 04:50:43;;;;;;;0.30;0.30;;;;;;;18.97;37.54;99515.16;4906787;29;20052;-74
2023/06/20 04:53:10;;;;;;;0.30;0.30;;;;;;;19.02;37.46;99514.97;4906501;29;20055;-74
2023/06/20 04:55:38;;;;;;;0.30;0.30;;;;;;;19.10;37.13;99516.03;4907386;29;20044;-74
2023/06/20 04:58:04;;;;;;;0.30;0.30;;;;;;;19.19;37.32;99518.72;4889015;29;20170;-74
2023/06/20 05:00:37;;;;;;;0.38;0.30;;;;;;;19.28;36.64;99516.69;4904900;29;20060;-74
2023/06/20 05:03:04;;;;;;;0.40;0.40;;;;;;;19.22;36.48;99516.09;4905919;29;20400;-74
2023/06/20 05:05:31;;;;;;;0.30;0.30;;;;;;;19.19;36.35;99508.47;4904299;29;20562;-74
2023/06/20 05:07:57;;;;;;;0.37;0.37;;;;;;;19.21;36.48;99513.69;4907453;29;20062;-75
2023/06/20 05:10:23;;;;;;;0.30;0.30;;;;;;;19.19;36.52;99514.00;4905611;29;20144;-74
2023/06/20 05:12:50;;;;;;;0.30;0.30;;;;;;;19.20;37.14;99514.81;4905351;29;20143;-74
2023/06/20 05:15:23;;;;;;;0.40;0.40;;;;;;;19.27;36.67;99513.09;4887798;29;20147;-74
2023/06/20 05:17:50;;;;;;;0.30;0.30;;;;;;;19.29;37.12;99517.53;4903789;29;20052;-75
2023/06/20 05:20:17;;;;;;;0.40;0.40;;;;;;;19.33;37.32;99507.38;4888976;29;20543;-75
2023/06/20 05:22:44;;;;;;;0.30;0.30;;;;;;;19.40;37.09;99510.38;4909970;29;20052;-75
2023/06/20 05:25:10;;;;;;;0.30;0.30;;;;;;;19.43;37.54;99509.69;4906179;29;20096;-75
2023/06/20 05:27:37;;;;;;;0.30;0.30;;;;;;;19.40;36.46;99502.88;4908418;29;20064;-76
2023/06/20 05:30:04;;;;;;;0.32;0.32;;;;;;;19.37;36.38;99495.28;4906243;29;20153;-74
2023/06/20 05:32:33;;;;;;;0.30;0.30;;;;;;;19.37;36.62;99503.59;4899605;29;20052;-74
2023/06/20 05:34:59;;;;;;;0.30;0.30;;;;;;;19.45;36.92;99498.28;4894883;29;20072;-73
2023/06/20 05:37:30;;;;;;;0.30;0.30;;;;;;;19.48;36.50;99484.53;4898051;29;20505;-76
2023/06/20 05:39:57;;;;;;;0.30;0.30;;;;;;;19.58;36.34;99480.53;4898579;29;20402;-74
2023/06/20 05:42:23;;;;;;;0.30;0.30;;;;;;;19.73;35.77;99492.09;4903140;29;20052;-74
2023/06/20 05:44:49;;;;;;;0.30;0.30;;;;;;;19.80;36.03;99486.78;4902516;29;20052;-74
2023/06/20 05:47:18;;;;;;;0.30;0.30;;;;;;;19.94;35.83;99494.81;4906087;29;20610;-74
2023/06/20 05:49:44;;;;;;;0.30;0.30;;;;;;;20.00;36.48;99485.09;4908756;29;20048;-74
2023/06/20 05:52:11;;;;;;;0.30;0.30;;;;;;;20.06;35.84;99475.41;4907220;29;20055;-75
2023/06/20 05:54:41;;;;;;;0.30;0.30;;;;;;;20.04;35.96;99469.38;4921125;29;20055;-75
2023/06/20 05:57:08;;;;;;;0.30;0.30;;;;;;;20.06;35.28;99471.81;4905097;29;20063;-75
2023/06/20 05:59:34;;;;;;;0.30;0.30;;;;;;;20.13;35.66;99480.34;4905413;29;20052;-74
2023/06/20 06:02:00;;;;;;;0.30;0.30;;;;;;;20.15;35.50;99472.50;4908922;29;20300;-75
2023/06/20 06:04:27;;;;;;;0.30;0.30;;;;;;;20.15;35.80;99469.75;4909612;29;20052;-73
2023/06/20 06:06:53;;;;;;;0.30;0.30;;;;;;;20.25;34.55;99480.34;4909443;29;20072;-74
2023/06/20 06:09:20;;;;;;;0.30;0.30;;;;;;;20.30;34.45;99468.22;4907614;29;20060;-74
2023/06/20 06:11:47;;;;;;;0.30;0.30;;;;;;;20.43;34.64;99468.19;4911215;29;20300;-75
2023/06/20 06:14:13;;;;;;;0.30;0.30;;;;;;;20.59;34.11;99466.31;4908332;29;20549;-74
2023/06/20 06:16:40;;;;;;;0.60;0.30;;;;;;;20.73;34.45;99468.69;4906671;29;20048;-74
2023/06/20 06:19:06;;;;;;;0.30;0.30;;;;;;;20.82;33.82;99463.84;4876398;29;20048;-74
2023/06/20 06:21:32;;;;;;;0.30;0.30;;;;;;;20.93;34.39;99458.59;4907624;29;20086;-75
2023/06/20 06:23:58;;;;;;;0.30;0.30;;;;;;;21.08;33.25;99465.38;4907619;29;20075;-74
2023/06/20 06:26:25;;;;;;;0.30;0.30;;;;;;;21.17;32.84;99465.22;4912320;29;20048;-75
2023/06/20 06:28:53;;;;;;;0.30;0.30;;;;;;;21.36;32.54;99458.97;4911473;29;20051;-75
2023/06/20 06:31:26;;;;;;;0.30;0.30;;;;;;;21.58;32.37;99456.75;4908518;29;20405;-75
2023/06/20 06:33:56;;;;;;;0.30;0.30;;;;;;;21.86;32.29;99455.06;4909411;29;20075;-74
2023/06/20 06:36:23;;;;;;;0.50;0.40;;;;;;;22.40;31.06;99456.34;4907264;29;20044;-74
2023/06/20 06:38:51;;;;;;;0.30;0.30;;;;;;;22.79;30.28;99453.63;4909725;29;20040;-75
2023/06/20 06:41:17;;;;;;;0.40;0.40;;;;;;;23.14;29.61;99462.25;4922884;29;20107;-74
2023/06/20 06:43:44;;;;;;;1.27;0.50;;;;;;;23.23;28.61;99466.44;4908562;29;20064;-73
2023/06/20 06:46:12;;;;;;;0.63;0.40;;;;;;;23.14;28.77;99445.53;4907932;29;20040;-74
2023/06/20 06:48:39;;;;;;;0.30;0.30;;;;;;;23.14;28.83;99456.69;4907146;29;20135;-74
2023/06/20 06:51:08;;;;;;;0.40;0.40;;;;;;;23.20;28.82;99450.44;4909164;29;20107;-74
2023/06/20 06:53:34;;;;;;;0.40;0.40;;;;;;;23.16;28.63;99455.13;4891621;29;20045;-74
2023/06/20 06:56:01;;;;;;;0.65;0.40;;;;;;;22.92;29.10;99447.88;4907170;29;20516;-74
2023/06/20 06:58:27;;;;;;;0.30;0.30;;;;;;;22.59;29.74;99441.66;4910464;29;20074;-74
2023/06/20 07:00:54;;;;;;;0.40;0.40;;;;;;;22.65;29.73;99448.53;4905051;29;20490;-74
2023/06/20 07:03:21;;;;;;;0.30;0.30;;;;;;;22.75;29.25;99438.78;4908017;29;20138;-75
2023/06/20 07:05:47;;;;;;;0.40;0.40;;;;;;;22.72;29.67;99447.09;4908656;29;20062;-75
2023/06/20 07:08:14;;;;;;;0.30;0.30;;;;;;;22.63;29.53;99450.06;4907415;29;20107;-75
2023/06/20 07:10:40;;;;;;;0.40;0.40;;;;;;;22.89;29.50;99449.44;4909959;29;20440;-75
2023/06/20 07:13:06;;;;;;;0.30;0.30;;;;;;;23.12;29.45;99436.75;4910302;29;20052;-74
2023/06/20 07:15:33;;;;;;;0.40;0.40;;;;;;;23.22;29.46;99436.13;4908576;29;20056;-74
2023/06/20 07:17:59;;;;;;;0.47;0.47;;;;;;;23.40;29.05;99432.88;4910126;29;20043;-74
2023/06/20 07:20:27;;;;;;;0.40;0.40;;;;;;;23.78;28.47;99431.94;4908453;29;20047;-74
2023/06/20 07:22:53;;;;;;;0.50;0.50;;;;;;;24.04;28.54;99433.19;4909745;29;20523;-74
2023/06/20 07:25:19;;;;;;;0.40;0.40;;;;;;;24.05;28.38;99434.00;4910213;29;20058;-74
2023/06/20 07:27:45;;;;;;;0.40;0.40;;;;;;;24.52;27.74;99420.66;4909445;29;20063;-74
2023/06/20 07:30:12;;;;;;;0.40;0.40;;;;;;;24.96;26.95;99429.63;4910341;29;20080;-76
2023/06/20 07:32:38;;;;;;;0.40;0.40;;;;;;;25.24;26.20;99428.31;4907644;29;20519;-74
2023/06/20 07:35:05;;;;;;;0.40;0.40;;;;;;;24.72;26.76;99423.31;4905358;29;20072;-75
2023/06/20 07:37:34;;;;;;;0.50;0.50;;;;;;;24.18;27.35;99426.19;4906173;29;20047;-75
2023/06/20 07:40:00;;;;;;;0.40;0.40;;;;;;;24.16;27.62;99434.94;4909731;29;20056;-76
2023/06/20 07:42:27;;;;;;;0.50;0.50;;;;;;;24.28;27.33;99427.53;4906274;29;20052;-74
2023/06/20 07:44:53;;;;;;;0.40;0.40;;;;;;;24.32;27.58;99433.97;4909365;29;20610;-75
2023/06/20 07:47:19;;;;;;;0.40;0.40;;;;;;;24.18;27.66;99426.97;4906487;29;20044;-74
2023/06/20 07:49:45;;;;;;;0.40;0.40;;;;;;;24.03;27.81;99423.19;4889461;29;20161;-74
2023/06/20 07:52:11;;;;;;;0.40;0.40;;;;;;;23.71;28.25;99417.06;4908001;29;20051;-74
2023/06/20 07:54:39;;;;;;;0.73;0.50;;;;;;;23.34;28.38;99424.03;4910145;29;20048;-74
2023/06/20 07:57:06;;;;;;;0.40;0.40;;;;;;;23.22;28.80;99430.53;4909969;29;20341;-74
2023/06/20 07:59:32;;;;;;;0.40;0.40;;;;;;;23.19;28.95;99428.50;4908383;29;20147;-74
2023/06/20 08:01:58;;;;;;;0.50;0.50;;;;;;;23.34;28.94;99418.44;4891550;29;20047;-74
2023/06/20 08:04:25;;;;;;;0.40;0.40;;;;;;;23.55;28.57;99426.38;4906365;29;20058;-74
2023/06/20 08:06:51;;;;;;;0.40;0.40;;;;;;;23.69;28.51;99419.41;4908572;29;20040;-74
2023/06/20 08:09:17;;;;;;;0.60;0.60;;;;;;;23.78;28.50;99412.41;4911575;29;20056;-74
2023/06/20 08:11:45;;;;;;;0.40;0.40;;;;;;;24.42;27.52;99413.75;4923228;29;20229;-74
2023/06/20 08:14:12;;;;;;;0.40;0.40;;;;;;;24.69;27.29;99416.50;4907082;29;20507;-74
2023/06/20 08:16:38;;;;;;;0.50;0.50;;;;;;;24.72;27.41;99417.72;4906545;29;20095;-74
2023/06/20 08:19:05;;;;;;;0.40;0.40;;;;;;;24.88;26.99;99418.34;4910847;29;20058;-73
2023/06/20 08:21:31;;;;;;;0.40;0.40;;;;;;;24.53;27.61;99402.72;4908794;29;20048;-74
2023/06/20 08:23:58;;;;;;;0.40;0.40;;;;;;;24.71;27.57;99405.75;4907353;29;20088;-74
2023/06/20 08:26:24;;;;;;;0.50;0.50;;;;;;;24.88;27.22;99403.56;4907729;29;20103;-74
2023/06/20 08:28:51;;;;;;;0.53;0.53;;;;;;;25.09;27.07;99407.78;4910379;29;20079;-74
2023/06/20 08:31:18;;;;;;;0.45;0.45;;;;;;;25.22;26.89;99411.13;4909599;29;20379;-75
2023/06/20 08:33:44;;;;;;;0.50;0.50;;;;;;;25.28;26.92;99401.19;4908733;29;20051;-74
2023/06/20 08:36:10;;;;;;;0.33;0.33;;;;;;;25.31;26.70;99406.81;4905958;29;20063;-74
2023/06/20 08:38:38;;;;;;;0.40;0.40;;;;;;;25.24;27.03;99398.34;4923415;29;20056;-75
2023/06/20 08:41:08;;;;;;;0.90;0.40;;;;;;;25.26;26.75;99407.16;4907923;29;20048;-74
2023/06/20 08:43:34;;;;;;;0.60;0.50;;;;;;;25.06;26.98;99406.56;4901096;29;20048;-74
2023/06/20 08:46:02;;;;;;;0.40;0.40;;;;;;;25.37;26.35;99398.06;4905050;29;20508;-74
2023/06/20 08:48:28;;;;;;;0.50;0.50;;;;;;;26.28;25.30;99393.97;4906070;29;20068;-73
2023/06/20 08:50:55;;;;;;;0.60;0.60;;;;;;;27.47;23.79;99396.34;4904393;29;20075;-74
2023/06/20 08:53:22;;;;;;;0.30;0.30;;;;;;;28.55;22.90;99391.78;4908932;29;21070;-74
2023/06/20 08:55:51;;;;;;;0.40;0.40;;;;;;;27.98;22.97;99393.53;4905345;29;20125;-75
2023/06/20 08:58:17;;;;;;;0.55;0.43;;;;;;;26.82;24.03;99393.38;4905658;29;20060;-75
2023/06/20 09:00:45;;;;;;;0.60;0.60;;;;;;;26.94;24.54;99393.06;4910300;29;20142;-74
2023/06/20 09:03:13;;;;;;;0.70;0.70;;;;;;;28.03;23.22;99391.13;4905469;29;20113;-74
2023/06/20 09:05:45;;;;;;;0.60;0.60;;;;;;;28.84;22.27;99383.25;4904075;29;20058;-74
2023/06/20 09:08:13;;;;;;;0.70;0.70;;;;;;;29.38;22.08;99382.09;4890353;29;20048;-75
2023/06/20 09:10:40;;;;;;;0.40;0.40;;;;;;;29.91;21.58;99387.69;4906794;29;20185;-75
2023/06/20 09:13:06;;;;;;;0.47;0.47;;;;;;;29.05;22.09;99368.25;4908295;29;20047;-75
2023/06/20 09:15:37;;;;;;;0.40;0.40;;;;;;;27.74;23.72;99359.47;4905644;29;20170;-75
2023/06/20 09:18:06;;;;;;;0.80;0.60;;;;;;;27.15;24.31;99372.66;4906080;29;20099;-74
2023/06/20 09:20:35;;;;;;;0.50;0.50;;;;;;;26.98;24.12;99367.84;4906086;29;20052;-75
2023/06/20 09:23:01;;;;;;;0.50;0.50;;;;;;;26.56;24.76;99373.69;4904261;29;20174;-74
2023/06/20 09:25:29;;;;;;;0.50;0.50;;;;;;;26.09;25.33;99378.22;4921176;29;20570;-74
2023/06/20 09:27:57;;;;;;;0.40;0.40;;;;;;;25.88;25.93;99374.91;4906812;29;20146;-74
2023/06/20 09:30:29;;;;;;;0.50;0.50;;;;;;;25.89;25.94;99370.91;4906424;29;20099;-73
2023/06/20 09:33:01;;;;;;;0.30;0.30;;;;;;;26.08;25.60;99351.41;4907949;29;20052;-73
2023/06/20 09:35:30;;;;;;;0.50;0.50;;;;;;;25.84;26.05;99357.28;4923647;29;20051;-73
2023/06/20 09:38:03;;;;;;;0.40;0.40;;;;;;;25.91;26.15;99364.94;4566475;29;10000669;-74
2023/06/20 09:40:29;;;;;;;0.40;0.40;;;;;;;25.89;26.31;99362.50;4907360;29;20058;-74
2023/06/20 09:42:58;;;;;;;0.30;0.30;;;;;;;25.51;26.76;99361.84;4906806;29;20059;-73
2023/06/20 09:45:24;;;;;;;0.30;0.30;;;;;;;25.16;27.48;99357.53;4889004;29;20067;-73
2023/06/20 09:47:51;;;;;;;0.80;0.80;;;;;;;25.75;26.76;99348.41;4906365;29;20051;-73
2023/06/20 09:50:19;;;;;;;;;;;;;;;27.97;24.02;99344.19;4904571;29;20068;-73
2023/06/20 09:52:48;;;;;;;0.40;0.40;;;;;;;28.93;22.55;99329.34;4918815;29;19975;-73
2023/06/20 09:55:16;;;;;;;0.40;0.40;;;;;;;28.13;23.10;99346.53;4904578;29;20055;-73
2023/06/20 09:57:43;;;;;;;0.47;0.47;;;;;;;27.02;24.30;99340.59;4906312;29;20708;-74
2023/06/20 10:00:15;;;;;;;0.40;0.40;;;;;;;25.95;25.73;99336.97;4906746;29;20052;-73
2023/06/20 10:02:44;;;;;;;0.98;0.98;;;;;;;26.17;25.99;99344.28;4905802;29;20064;-73
2023/06/20 10:05:11;;;;;;;0.60;0.60;;;;;;;28.35;23.66;99349.31;4913251;29;20104;-73
2023/06/20 10:07:39;;;;;;;1.30;1.00;;;;;;;29.51;21.97;99338.19;4912658;29;20048;-74
2023/06/20 10:10:06;;;;;;;0.50;0.50;;;;;;;30.37;21.49;99335.66;4876821;29;20520;-73
2023/06/20 10:12:35;;;;;;;0.50;0.50;;;;;;;29.30;22.24;99344.75;4906270;29;20047;-74
2023/06/20 10:15:03;;;;;;;0.40;0.40;;;;;;;27.55;24.47;99338.22;4906465;29;20516;-75
2023/06/20 10:17:32;;;;;;;0.40;0.40;;;;;;;26.39;25.81;99340.78;4923679;29;20048;-73
2023/06/20 10:19:59;;;;;;;0.40;0.40;;;;;;;26.02;25.61;99343.41;4903718;29;20058;-73
2023/06/20 10:22:32;;;;;;;0.40;0.40;;;;;;;26.47;24.53;99332.03;4878128;29;20039;-73
2023/06/20 10:25:02;;;;;;;0.40;0.40;;;;;;;26.56;24.22;99328.06;4909870;29;20585;-74
2023/06/20 10:27:30;;;;;;;0.40;0.40;;;;;;;26.52;24.31;99336.44;4912152;29;20056;-75
2023/06/20 10:29:57;;;;;;;;;;;;;;;26.30;25.13;99322.38;4907538;29;20160;-73
2023/06/20 10:32:24;;;;;;;0.90;0.90;;;;;;;25.92;26.45;99327.34;4911369;29;19934;-73
2023/06/20 10:34:52;;;;;;;0.90;0.90;;;;;;;26.21;25.93;99323.91;4907421;29;20443;-74
2023/06/20 10:37:40;;;;;;;0.50;0.50;;;;;;;27.07;25.35;99328.97;4910082;29;20262;-74
2023/06/20 10:40:10;;;;;;;0.50;0.50;;;;;;;27.37;24.83;99324.19;4908450;29;20055;-74
2023/06/20 10:42:41;;;;;;;1.10;1.10;;;;;;;27.89;24.25;99316.09;4895955;29;20140;-75
2023/06/20 10:45:24;;;;;;;0.50;0.50;;;;;;;28.87;23.00;99310.09;4911461;29;20048;-74
2023/06/20 10:47:52;;;;;;;0.55;0.55;;;;;;;29.16;22.30;99314.69;4912233;29;20052;-74
2023/06/20 10:50:19;;;;;;;0.52;0.50;;;;;;;28.94;22.69;99303.63;4911800;29;20073;-74
2023/06/20 10:52:46;;;;;;;0.47;0.47;;;;;;;28.22;23.46;99306.78;4910118;29;20100;-74
2023/06/20 10:55:21;;;;;;;0.40;0.40;;;;;;;27.48;24.48;99298.91;4895775;29;20130;-74
2023/06/20 10:57:49;;;;;;;0.50;0.50;;;;;;;26.88;25.12;99304.94;4910910;29;20192;-74
2023/06/20 11:00:19;;;;;;;0.50;0.50;;;;;;;26.41;25.60;99307.56;4908044;29;20056;-74
2023/06/20 11:02:49;;;;;;;0.40;0.40;;;;;;;26.18;25.94;99300.28;4903895;29;20274;-74
2023/06/20 11:05:15;;;;;;;0.50;0.50;;;;;;;26.81;25.24;99302.88;4908849;29;20048;-74
2023/06/20 11:07:52;;;;;;;1.02;0.60;;;;;;;26.88;25.08;99294.50;4912737;29;20108;-73
2023/06/20 11:10:20;;;;;;;0.75;0.60;;;;;;;27.19;25.05;99305.34;4905537;29;20064;-73
2023/06/20 11:12:47;;;;;;;0.40;0.40;;;;;;;26.89;25.06;99295.31;4910698;29;20055;-73
2023/06/20 11:15:26;;;;;;;0.50;0.50;;;;;;;26.19;25.98;99290.69;4905526;29;20121;-75
2023/06/20 11:17:55;;;;;;;0.68;0.68;;;;;;;26.15;26.40;99290.63;4907780;29;20059;-74
2023/06/20 11:20:23;;;;;;;1.30;1.20;;;;;;;26.92;25.52;99290.88;4908729;29;20074;-73
2023/06/20 11:22:51;;;;;;;0.40;0.40;;;;;;;28.21;24.13;99286.34;4908276;29;20051;-74
2023/06/20 11:25:25;;;;;;;1.20;1.20;;;;;;;27.80;24.48;99284.03;4923653;29;20359;-74
2023/06/20 11:27:52;;;;;;;0.90;0.90;;;;;;;29.07;22.80;99275.78;4909563;29;20040;-75
2023/06/20 11:30:27;;;;;;;0.50;0.50;;;;;;;29.08;22.43;99279.41;4890607;29;20222;-75
2023/06/20 11:33:03;;;;;;;0.60;0.60;;;;;;;28.41;23.41;99275.41;4905156;29;20055;-75
2023/06/20 11:35:47;;;;;;;0.50;0.50;;;;;;;27.69;24.22;99281.28;4906568;29;20079;-74
2023/06/20 11:38:14;;;;;;;0.40;0.40;;;;;;;26.97;25.04;99276.50;4908081;29;20044;-74